Latest Weather Observations for Gosford

IDN60901

Issued at 7:41 pm EST Thursday 16 August 2018 (issued every 10 minutes, with the page automatically refreshed every 10 minutes)

About weather observations | Map of Sydney area stations | Latest observations for Sydney area | Other Formats
Station Details ID: 061425 Name: GOSFORD AWS Lat: -33.44 Lon: 151.36 Height: 7.0 m
Data from the previous 72 hours. | See also: Recent months at Gosford
Date/Time
EST
Temp
°C
App
Temp
°C
Dew
Point
°C
Rel
Hum
%
Delta-T
°C
Wind Press
QNH
hPa
Press
MSL
hPa
Rain since
9am
mm
Dir  Spd
km/h
Gust
km/h
Spd
kts
Gust
kts
16/07:30pm 11.4 10.6 6.7 73 2.2 CALM 0 0 0 0 - - 0.0
16/07:00pm 12.4 11.5 6.2 66 2.9 CALM 0 0 0 0 - - 0.0
16/06:30pm 14.4 13.3 7.0 61 3.6 N 2 4 1 2 - - 0.0
16/06:00pm 14.5 13.4 6.8 60 3.7 NNE 2 2 1 1 - - 0.0
16/05:30pm 14.9 14.1 6.5 57 4.1 CALM 0 4 0 2 - - 0.0
16/05:00pm 17.0 15.8 6.5 50 5.2 NE 2 6 1 3 - - 0.0
16/04:30pm 17.4 15.0 6.9 50 5.2 ESE 9 13 5 7 - - 0.0
16/04:00pm 17.8 15.1 7.5 51 5.2 ESE 11 20 6 11 - - 0.0
16/03:30pm 18.4 15.1 6.6 46 5.9 ESE 13 20 7 11 - - 0.0
16/03:00pm 18.7 15.6 5.5 42 6.4 E 11 17 6 9 - - 0.0
16/02:30pm 18.9 16.2 7.4 47 5.8 ESE 11 17 6 9 - - 0.0
16/02:00pm 19.7 17.3 7.1 44 6.4 SSE 9 15 5 8 - - 0.0
16/01:30pm 20.5 18.0 4.9 36 7.6 SSE 7 13 4 7 - - 0.0
16/01:00pm 20.9 17.1 5.7 37 7.6 WSW 15 26 8 14 - - 0.0
16/12:30pm 21.6 16.2 2.3 28 9.0 WNW 20 28 11 15 - - 0.0
16/12:00pm 21.6 17.7 3.3 30 8.7 WSW 13 28 7 15 - - 0.0
16/11:30am 20.5 18.0 4.5 35 7.8 S 7 13 4 7 - - 0.0
16/11:00am 20.4 18.2 3.2 32 8.1 WSW 4 11 2 6 - - 0.0
16/10:30am 20.3 18.0 2.6 31 8.3 NW 4 7 2 4 - - 0.0
16/10:00am 19.3 17.6 6.1 42 6.5 SSW 4 7 2 4 - - 0.0
16/09:30am 18.8 17.1 6.0 43 6.3 SSE 4 6 2 3 - - 0.0
16/09:00am 18.0 16.2 3.5 38 6.8 NW 2 6 1 3 - - 0.0
16/08:30am 16.3 14.5 3.4 42 5.9 NW 2 4 1 2 - - 0.0
16/08:00am 13.3 10.9 4.5 55 4.0 SW 6 11 3 6 - - 0.0
16/07:30am 11.5 9.1 2.3 53 4.0 N 4 4 2 2 - - 0.0
16/07:00am 8.8 6.8 2.2 63 2.8 E 2 2 1 1 - - 0.0
16/06:47am 9.2 7.1 1.6 59 3.1 N 2 4 1 2 - - 0.0
16/06:30am 14.2 10.8 -0.3 37 6.0 N 7 9 4 5 - - 0.0
16/06:00am 10.4 8.7 1.8 55 3.6 CALM 0 0 0 0 - - 0.0
16/05:30am 12.8 10.4 -0.1 41 5.3 ENE 2 6 1 3 - - 0.0
16/05:00am 16.4 12.5 -1.7 29 7.5 NNW 9 13 5 7 - - 0.0
16/04:30am 16.0 12.1 -1.5 30 7.2 NNW 9 13 5 7 - - 0.0
16/04:00am 16.6 12.7 -1.5 29 7.5 NW 9 19 5 10 - - 0.0
16/03:30am 12.9 10.6 0.6 43 5.2 SSE 2 4 1 2 - - 0.0
16/03:00am 16.9 12.8 -2.7 26 8.0 N 9 15 5 8 - - 0.0
16/02:44am 16.1 11.8 -1.5 30 7.3 NNW 11 15 6 8 - - 0.0
16/02:30am 11.0 8.7 0.4 48 4.3 WNW 2 7 1 4 - - 0.0
16/02:00am 12.1 9.7 -0.4 42 5.1 NNE 2 6 1 3 - - 0.0
16/01:30am 12.4 10.0 -0.1 42 5.1 ESE 2 6 1 3 - - 0.0
16/01:00am 15.5 12.4 -2.9 28 7.3 NNE 4 6 2 3 - - 0.0
16/12:30am 17.8 15.0 -3.6 23 8.6 SSE 2 6 1 3 - - 0.0
16/12:00am 18.6 13.6 -4.1 21 9.1 NNW 13 26 7 14 - - 0.0
 
Date/Time
EST
Temp
°C
App
Temp
°C
Dew
Point
°C
Rel
Hum
%
Delta-T
°C
Wind Press
QNH
hPa
Press
MSL
hPa
Rain since
9am
mm
Dir  Spd
km/h
Gust
km/h
Spd
kts
Gust
kts
15/11:30pm 18.9 13.5 -4.5 20 9.3 NW 15 26 8 14 - - 0.0
15/11:00pm 18.9 14.6 -5.2 19 9.5 NW 9 20 5 11 - - 0.0
15/10:30pm 19.1 14.0 -5.0 19 9.5 WNW 13 30 7 16 - - 0.0
15/10:00pm 19.4 13.9 -5.5 18 9.8 NW 15 30 8 16 - - 0.0
15/09:30pm 19.4 15.0 -5.5 18 9.8 NW 9 20 5 11 - - 0.0
15/09:00pm 19.9 14.7 -6.6 16 10.2 NW 13 24 7 13 - - 0.0
15/08:30pm 19.6 15.5 -6.9 16 10.1 WNW 7 19 4 10 - - 0.0
15/08:00pm 20.0 14.8 -6.5 16 10.3 WNW 13 22 7 12 - - 0.0
15/07:30pm 19.8 15.3 -6.7 16 10.2 NW 9 19 5 10 - - 0.0
15/07:00pm 20.5 15.2 -7.0 15 10.6 WNW 13 22 7 12 - - 0.0
15/06:30pm 20.8 15.9 -7.6 14 10.8 NW 11 20 6 11 - - 0.0
15/06:00pm 21.5 15.4 -8.0 13 11.3 WNW 17 28 9 15 - - 0.0
15/05:30pm 21.6 15.8 -9.0 12 11.5 WNW 15 26 8 14 - - 0.0
15/05:00pm 22.7 16.9 -9.2 11 12.1 NW 15 28 8 15 - - 0.0
15/04:30pm 23.6 16.9 -8.5 11 12.4 NW 20 35 11 19 - - 0.0
15/04:00pm 24.1 18.0 -8.2 11 12.6 WNW 17 22 9 12 - - 0.0
15/03:30pm 24.1 14.8 -9.4 10 12.8 WNW 33 54 18 29 - - 0.0
15/03:22pm 24.2 15.9 -9.3 10 12.8 WNW 28 48 15 26 - - 0.0
15/03:00pm 24.4 17.8 -6.8 12 12.6 WNW 20 41 11 22 - - 0.0
15/02:30pm 24.3 14.9 -6.9 12 12.5 WNW 35 61 19 33 - - 0.0
15/02:00pm 24.1 15.7 -6.0 13 12.3 WNW 30 59 16 32 - - 0.0
15/01:31pm 23.8 15.9 -4.4 15 11.8 WNW 28 50 15 27 - - 0.0
15/01:30pm 23.8 16.3 -4.4 15 11.8 WNW 26 50 14 27 - - 0.0
15/01:00pm 23.4 16.5 -3.0 17 11.3 WNW 24 41 13 22 - - 0.0
15/12:30pm 23.1 16.1 -3.3 17 11.2 NW 24 59 13 32 - - 0.0
15/12:00pm 22.8 16.0 -2.0 19 10.8 WNW 24 44 13 24 - - 0.0
15/11:30am 21.9 15.1 -2.0 20 10.3 WNW 24 41 13 22 - - 0.0
15/11:00am 21.1 15.9 -0.2 24 9.5 NW 17 30 9 16 - - 0.0
15/10:30am 19.7 14.0 0.7 28 8.5 NW 20 30 11 16 - - 0.0
15/10:00am 18.3 13.7 1.3 32 7.6 NNW 15 30 8 16 - - 0.0
15/09:30am 17.2 12.1 0.8 33 7.2 NW 17 33 9 18 - - 0.0
15/09:00am 16.9 12.5 0.5 33 7.1 NNW 13 26 7 14 - - 0.0
15/08:30am 16.6 11.9 0.7 34 6.9 NW 15 28 8 15 - - 0.0
15/08:00am 16.6 13.5 0.3 33 7.0 N 6 11 3 6 - - 0.0
15/07:30am 15.4 12.1 0.4 36 6.4 N 7 15 4 8 - - 0.0
15/07:00am 15.1 11.1 0.5 37 6.2 NNW 11 19 6 10 - - 0.0
15/06:30am 14.9 10.9 0.4 37 6.2 N 11 24 6 13 - - 0.0
15/06:00am 15.1 9.6 0.5 37 6.2 NNW 19 35 10 19 - - 0.0
15/05:30am 14.1 9.9 1.7 43 5.4 N 13 26 7 14 - - 0.0
15/05:00am 14.5 10.3 1.8 42 5.5 N 13 24 7 13 - - 0.0
15/04:30am 14.2 10.5 2.1 44 5.3 N 11 19 6 10 - - 0.0
15/04:00am 14.7 12.0 2.6 44 5.4 NE 6 17 3 9 - - 0.0
15/03:30am 15.3 12.4 2.5 42 5.7 N 7 15 4 8 - - 0.0
15/03:00am 15.0 11.4 3.2 45 5.3 N 11 24 6 13 - - 0.0
15/02:30am 14.8 12.0 3.3 46 5.2 N 7 17 4 9 - - 0.0
15/02:00am 14.7 12.0 3.5 47 5.1 NNW 7 15 4 8 - - 0.0
15/01:30am 15.5 12.0 3.3 44 5.6 N 11 19 6 10 - - 0.0
15/01:00am 15.5 12.0 3.6 45 5.4 NW 11 17 6 9 - - 0.0
15/12:30am 16.1 11.9 3.9 44 5.6 NW 15 24 8 13 - - 0.0
15/12:00am 16.9 12.3 3.9 42 6.1 NW 17 28 9 15 - - 0.0
 
Date/Time
EST
Temp
°C
App
Temp
°C
Dew
Point
°C
Rel
Hum
%
Delta-T
°C
Wind Press
QNH
hPa
Press
MSL
hPa
Rain since
9am
mm
Dir  Spd
km/h
Gust
km/h
Spd
kts
Gust
kts
14/11:30pm 17.3 13.8 3.6 40 6.4 NW 11 20 6 11 - - 0.0
14/11:00pm 14.5 11.7 5.0 53 4.4 NW 9 19 5 10 - - 0.0
14/10:30pm 9.4 7.9 5.0 74 2.0 N 2 4 1 2 - - 0.0
14/10:00pm 8.6 7.7 6.1 84 1.1 CALM 0 2 0 1 - - 0.0
14/09:30pm 8.5 7.3 6.5 87 0.9 NE 2 4 1 2 - - 0.0
14/09:00pm 8.7 6.7 6.3 85 1.1 NE 6 7 3 4 - - 0.0
14/08:30pm 9.2 8.0 6.6 84 1.2 NE 2 4 1 2 - - 0.0
14/08:00pm 9.8 9.1 7.1 83 1.3 CALM 0 6 0 3 - - 0.0
14/07:30pm 10.3 9.6 6.8 79 1.6 CALM 0 0 0 0 - - 0.0
14/07:00pm 11.5 10.9 7.4 76 2.0 CALM 0 0 0 0 - - 0.0
14/06:30pm 12.4 11.8 7.3 71 2.5 CALM 0 0 0 0 - - 0.0
14/06:00pm 13.4 12.8 7.4 67 2.9 CALM 0 0 0 0 - - 0.0
14/05:30pm 14.6 14.0 7.4 62 3.5 CALM 0 2 0 1 - - 0.0
14/05:00pm 16.7 14.8 6.8 52 4.9 ENE 6 9 3 5 - - 0.0
14/04:30pm 18.0 16.1 6.5 47 5.7 E 6 11 3 6 - - 0.0
14/04:00pm 18.9 16.9 6.4 44 6.2 ENE 6 9 3 5 - - 0.0
14/03:30pm 19.1 16.0 5.6 41 6.6 NE 11 17 6 9 - - 0.0
14/03:00pm 19.4 15.9 5.5 40 6.8 ENE 13 19 7 10 - - 0.0
14/02:30pm 19.3 16.1 6.8 44 6.3 ENE 13 22 7 12 - - 0.0
14/02:00pm 19.6 17.0 6.0 41 6.7 E 9 15 5 8 - - 0.0
14/01:30pm 19.6 16.8 5.3 39 7.0 E 9 15 5 8 - - 0.0
14/01:00pm 19.4 16.6 1.9 31 8.0 S 6 7 3 4 - - 0.0
14/12:30pm 18.9 15.9 1.9 32 7.7 S 7 9 4 5 - - 0.0
14/12:00pm 18.4 15.5 2.7 35 7.2 S 7 9 4 5 - - 0.0
14/11:30am 18.7 16.4 2.5 34 7.4 SSW 4 11 2 6 - - 0.0
14/11:00am 17.7 14.7 2.1 35 7.0 W 7 13 4 7 - - 0.0
14/10:30am 16.8 14.7 3.8 42 6.0 WSW 4 9 2 5 - - 0.0
14/10:00am 15.3 13.2 3.8 46 5.3 WSW 4 9 2 5 - - 0.0
14/09:30am 14.3 11.8 3.7 49 4.8 WNW 6 9 3 5 - - 0.0
14/09:00am 13.0 10.3 3.7 53 4.2 W 7 13 4 7 - - 0.0
14/08:30am 12.2 9.6 3.2 54 4.0 W 6 9 3 5 - - 0.0
14/08:00am 10.3 8.9 3.3 62 3.0 CALM 0 2 0 1 - - 0.0
14/07:30am 7.8 6.3 3.1 72 2.0 CALM 0 4 0 2 - - 0.0
14/07:00am 5.7 3.8 3.0 83 1.1 WSW 2 4 1 2 - - 0.0
14/06:30am 4.8 2.8 2.5 85 0.9 SE 2 6 1 3 - - 0.0
14/06:00am 4.3 2.3 2.2 86 0.8 SE 2 4 1 2 - - 0.0
14/05:30am 4.9 3.4 3.1 88 0.7 CALM 0 6 0 3 - - 0.0
14/05:00am 5.1 3.5 2.5 83 1.1 CALM 0 2 0 1 - - 0.0
14/04:30am 5.5 3.2 2.8 83 1.1 SW 4 6 2 3 - - 0.0
14/04:00am 6.2 4.3 3.0 80 1.3 SE 2 4 1 2 - - 0.0
14/03:30am 6.7 4.7 2.2 73 1.8 WNW 2 6 1 3 - - 0.0
14/03:00am 8.7 6.8 2.7 66 2.5 SE 2 4 1 2 - - 0.0
14/02:30am 10.3 7.4 2.7 59 3.3 NW 7 11 4 6 - - 0.0
14/02:00am 10.9 8.1 3.2 59 3.4 NW 7 17 4 9 - - 0.0
14/01:30am 10.9 8.3 3.0 58 3.4 NW 6 13 3 7 - - 0.0
14/01:00am 9.6 6.9 2.5 61 3.0 NNW 6 7 3 4 - - 0.0
14/12:30am 10.8 8.1 2.9 58 3.4 NNW 6 11 3 6 - - 0.0
14/12:00am 11.5 9.2 2.8 55 3.8 W 4 11 2 6 - - 0.0
 
Date/Time
EST
Temp
°C
App
Temp
°C
Dew
Point
°C
Rel
Hum
%
Delta-T
°C
Wind Press
QNH
hPa
Press
MSL
hPa
Rain since
9am
mm
Dir  Spd
km/h
Gust
km/h
Spd
kts
Gust
kts
13/11:30pm 11.6 8.8 2.9 55 3.8 WNW 7 19 4 10 - - 0.0
13/11:00pm 12.0 9.2 3.3 55 3.8 WNW 7 15 4 8 - - 0.0
13/10:30pm 11.2 8.7 3.5 59 3.4 WNW 6 13 3 7 - - 0.0
13/10:00pm 11.0 9.3 3.8 61 3.2 W 2 7 1 4 - - 0.0
13/09:30pm 9.6 7.6 4.6 71 2.2 WNW 4 11 2 6 - - 0.0
13/09:00pm 9.3 8.4 5.9 79 1.6 CALM 0 0 0 0 - - 0.0
13/08:30pm 9.3 8.3 5.5 77 1.7 CALM 0 0 0 0 - - 0.0
13/08:00pm 9.6 8.7 6.1 79 1.6 CALM 0 0 0 0 - - 0.0

Latest Capital City Observations: Canberra | Sydney | Melbourne | Brisbane | Adelaide | Perth | Hobart | Darwin

Other Formats:

Comma delimited format used in spreadsheet applications
http://www.bom.gov.au/fwo/IDN60901/IDN60901.94782.axf

JavaScript Object Notation format (JSON) in row-major order
http://www.bom.gov.au/fwo/IDN60901/IDN60901.94782.json